Kinrikimaru — JL6545 — position and weather

sailwx.info

Track history (hours):
 
Tides and Currents Weather Stations Pressure Air Temp Water Temp Dewpoint Dewpoint Depression Visibility Wind Speed Wind Dir Waves Ship Positions

Kinrikimaru

Last reported at 2015-May-26 07:31 UTC. Time now 2015-May-28 20:06 UTC.
Position N 35°03' E 139°31'.

Length 76 m; draft 3.5 m.

Type: Cargo ship. MMSI: 431500615.

Date/timePositionNaut miles runAvg speedWind from/ knotsBaromVisibWave heightAir tempDewpointWater temp
2015-May-26 07:31N 35°03' E 139°31'1512.5
2015-May-26 06:21N 35°11' E 139°45'1012.2
2015-May-26 05:33N 35°21' E 139°42'9 8.3
2015-May-26 04:28N 35°30' E 139°43'0 0.1
2015-May-26 03:31N 35°30' E 139°43'0 0.0
2015-May-26 02:31N 35°30' E 139°43'0 0.0
2015-May-26 01:31N 35°30' E 139°43'0 0.0
2015-May-26 00:31N 35°30' E 139°43'0 0.0
2015-May-25 23:31N 35°30' E 139°43'3 3.3
2015-May-25 22:34N 35°30' E 139°47'1 1.4
2015-May-25 21:32N 35°29' E 139°48'0 0.0
2015-May-25 20:29N 35°29' E 139°48'0 0.0
2015-May-25 19:32N 35°29' E 139°48'0 0.0
2015-May-25 18:32N 35°29' E 139°48'0 0.0
2015-May-25 17:32N 35°29' E 139°48'0 0.0
2015-May-25 16:29N 35°29' E 139°48'0 0.0
2015-May-25 15:32N 35°29' E 139°48'0 0.0
2015-May-25 14:32N 35°29' E 139°48'0 0.0
2015-May-25 13:29N 35°29' E 139°48'0 0.0
2015-May-25 12:26N 35°29' E 139°48'0 0.0
2015-May-25 11:32N 35°29' E 139°48'0 0.0
2015-May-25 10:29N 35°29' E 139°48'6 6.9
2015-May-25 09:34N 35°23' E 139°46'1212.0
2015-May-25 08:33N 35°11' E 139°47'24510.6
2015-May-24 09:26N 34°02' E 135°01'1213.4
2015-May-24 08:33N 34°14' E 134°59'1312.7
2015-May-24 07:33N 34°25' E 135°06'1313.1
2015-May-24 06:33N 34°33' E 135°18'6 5.6
2015-May-24 05:28N 34°35' E 135°26'0 0.0
2015-May-24 04:28N 34°35' E 135°26'0 0.0
2015-May-24 03:28N 34°35' E 135°26'0 0.0
2015-May-24 02:28N 34°35' E 135°26'0 0.0
2015-May-24 01:28N 34°35' E 135°26'0 0.0
2015-May-24 00:28N 34°35' E 135°26'0 0.0
2015-May-23 23:28N 34°35' E 135°26'3 3.4
2015-May-23 22:28N 34°31' E 135°24'1 0.1
2015-May-23 15:06N 34°31' E 135°24'0 0.0
2015-May-23 12:24N 34°31' E 135°24'0 0.0
2015-May-23 07:24N 34°31' E 135°24'0 0.0
2015-May-23 06:19N 34°31' E 135°24'810.5
2015-May-23 05:33N 34°33' E 135°15'  
2015-May-17 14:31N 33°53' E 134°42'  
Track history (hours):
 
Tides and Currents Weather Stations Pressure Air Temp Water Temp Dewpoint Dewpoint Depression Visibility Wind Speed Wind Dir Waves Ship Positions

Kinrikimaru

Last reported at 2015-May-26 07:31 UTC. Time now 2015-May-28 20:06 UTC.
Position N 35°03' E 139°31'.

Length 76 m; draft 3.5 m.

Type: Cargo ship. MMSI: 431500615.

Date/timePositionNaut miles runAvg speedWind from/ knotsBaromVisibWave heightAir tempDewpointWater temp
2015-May-26 07:31N 35°03' E 139°31'1512.5
2015-May-26 06:21N 35°11' E 139°45'1012.2
2015-May-26 05:33N 35°21' E 139°42'9 8.3
2015-May-26 04:28N 35°30' E 139°43'0 0.1
2015-May-26 03:31N 35°30' E 139°43'0 0.0
2015-May-26 02:31N 35°30' E 139°43'0 0.0
2015-May-26 01:31N 35°30' E 139°43'0 0.0
2015-May-26 00:31N 35°30' E 139°43'0 0.0
2015-May-25 23:31N 35°30' E 139°43'3 3.3
2015-May-25 22:34N 35°30' E 139°47'1 1.4
2015-May-25 21:32N 35°29' E 139°48'0 0.0
2015-May-25 20:29N 35°29' E 139°48'0 0.0
2015-May-25 19:32N 35°29' E 139°48'0 0.0
2015-May-25 18:32N 35°29' E 139°48'0 0.0
2015-May-25 17:32N 35°29' E 139°48'0 0.0
2015-May-25 16:29N 35°29' E 139°48'0 0.0
2015-May-25 15:32N 35°29' E 139°48'0 0.0
2015-May-25 14:32N 35°29' E 139°48'0 0.0
2015-May-25 13:29N 35°29' E 139°48'0 0.0
2015-May-25 12:26N 35°29' E 139°48'0 0.0
2015-May-25 11:32N 35°29' E 139°48'0 0.0
2015-May-25 10:29N 35°29' E 139°48'6 6.9
2015-May-25 09:34N 35°23' E 139°46'1212.0
2015-May-25 08:33N 35°11' E 139°47'24510.6
2015-May-24 09:26N 34°02' E 135°01'1213.4
2015-May-24 08:33N 34°14' E 134°59'1312.7
2015-May-24 07:33N 34°25' E 135°06'1313.1
2015-May-24 06:33N 34°33' E 135°18'6 5.6
2015-May-24 05:28N 34°35' E 135°26'0 0.0
2015-May-24 04:28N 34°35' E 135°26'0 0.0
2015-May-24 03:28N 34°35' E 135°26'0 0.0
2015-May-24 02:28N 34°35' E 135°26'0 0.0
2015-May-24 01:28N 34°35' E 135°26'0 0.0
2015-May-24 00:28N 34°35' E 135°26'0 0.0
2015-May-23 23:28N 34°35' E 135°26'3 3.4
2015-May-23 22:28N 34°31' E 135°24'1 0.1
2015-May-23 15:06N 34°31' E 135°24'0 0.0
2015-May-23 12:24N 34°31' E 135°24'0 0.0
2015-May-23 07:24N 34°31' E 135°24'0 0.0
2015-May-23 06:19N 34°31' E 135°24'810.5
2015-May-23 05:33N 34°33' E 135°15'  
2015-May-17 14:31N 33°53' E 134°42'  

Dump ship's entire track history